Observation data for Levelland on 02/12/2018      Previous  Date  Next       Current Mesonet Observations  Soil Data  Daily Summary Page  Observations in Plain Language
KLD1 120600Z 16005KT M06/M16 A302 RMK A01 T10561164  RH  043%=      5-min Rain = 0
KLD1 120605Z 17006KT M06/M16 A3021 RMK A01 T10561156  RH  046%=      5-min Rain = 0
KLD1 120610Z 18006KT M05/M15 A3021 RMK A01 T10531153  RH  046%=      5-min Rain = 0
KLD1 120615Z 18006KT M05/M15 A3021 RMK A01 T10521153  RH  046%=      5-min Rain = 0
KLD1 120620Z 18005KT M05/M16 A3021 RMK A01 T10531155  RH  046%=      5-min Rain = 0
KLD1 120625Z 17005KT M06/M16 A3021 RMK A01 T10571158  RH  045%=      5-min Rain = 0
KLD1 120630Z 17005KT M06/M16 A3021 RMK A01 T10601158  RH  047%=      5-min Rain = 0
KLD1 120635Z 18005KT M06/M16 A3021 RMK A01 T10601155  RH  048%=      5-min Rain = 0
KLD1 120640Z 18006KT M06/M15 A3021 RMK A01 T10581153  RH  048%=      5-min Rain = 0
KLD1 120645Z 19004KT M06/M16 A3021 RMK A01 T10591155  RH  047%=      5-min Rain = 0
KLD1 120650Z 19005KT M06/M15 A3021 RMK A01 T10591154  RH  048%=      5-min Rain = 0
KLD1 120655Z 18005KT M06/M15 A3022 RMK A01 T10591151  RH  049%=      5-min Rain = 0
KLD1 120700Z 18005KT M06/M15 A3022 RMK A01 T10561151  RH  048%=      5-min Rain = 0
KLD1 120705Z 18005KT M06/M15 A3022 RMK A01 T10561149  RH  049%=      5-min Rain = 0
KLD1 120710Z 19006KT M05/M15 A3022 RMK A01 T10541147  RH  049%=      5-min Rain = 0
KLD1 120715Z 19006KT M05/M15 A3022 RMK A01 T10521146  RH  048%=      5-min Rain = 0
KLD1 120720Z 19006KT M05/M15 A3022 RMK A01 T10511147  RH  047%=      5-min Rain = 0
KLD1 120725Z 18005KT M05/M15 A3022 RMK A01 T10511148  RH  047%=      5-min Rain = 0
KLD1 120730Z 18006KT M05/M15 A3022 RMK A01 T10531150  RH  047%=      5-min Rain = 0
KLD1 120735Z 19006KT M05/M15 A3022 RMK A01 T10541148  RH  048%=      5-min Rain = 0
KLD1 120740Z 18005KT M05/M15 A3022 RMK A01 T10541147  RH  049%=      5-min Rain = 0
KLD1 120745Z 18004KT M06/M15 A3022 RMK A01 T10551151  RH  048%=      5-min Rain = 0
KLD1 120750Z 17004KT M06/M15 A3022 RMK A01 T10601154  RH  048%=      5-min Rain = 0
KLD1 120755Z 16003KT M06/M16 A3022 RMK A01 T10621155  RH  049%=      5-min Rain = 0
KLD1 120800Z 16003KT M06/M16 A3022 RMK A01 T10641156  RH  049%=      5-min Rain = 0
KLD1 120805Z 17005KT M07/M16 A3023 RMK A01 T10661157  RH  049%=      5-min Rain = 0
KLD1 120810Z 17006KT M06/M15 A3023 RMK A01 T10631151  RH  051%=      5-min Rain = 0
KLD1 120815Z 17006KT M06/M15 A3023 RMK A01 T10591146  RH  051%=      5-min Rain = 0
KLD1 120820Z 18005KT M06/M15 A3023 RMK A01 T10571146  RH  050%=      5-min Rain = 0
KLD1 120825Z 18005KT M06/M15 A3023 RMK A01 T10581147  RH  050%=      5-min Rain = 0
KLD1 120830Z 18005KT M06/M15 A3023 RMK A01 T10591148  RH  050%=      5-min Rain = 0
KLD1 120835Z 18006KT M06/M15 A3023 RMK A01 T10591147  RH  050%=      5-min Rain = 0
KLD1 120840Z 18007KT M06/M15 A3023 RMK A01 T10581146  RH  051%=      5-min Rain = 0
KLD1 120845Z 18007KT M06/M14 A3023 RMK A01 T10571144  RH  051%=      5-min Rain = 0
KLD1 120850Z 18007KT M06/M14 A3023 RMK A01 T10561144  RH  051%=      5-min Rain = 0
KLD1 120855Z 18006KT M06/M14 A3023 RMK A01 T10561143  RH  051%=      5-min Rain = 0
KLD1 120900Z 18005KT M06/M14 A3023 RMK A01 T10561142  RH  051%=      5-min Rain = 0
KLD1 120905Z 18005KT M06/M14 A3023 RMK A01 T10561143  RH  051%=      5-min Rain = 0
KLD1 120910Z 18006KT M06/M14 A3023 RMK A01 T10561142  RH  051%=      5-min Rain = 0
KLD1 120915Z 17005KT M05/M14 A3023 RMK A01 T10531138  RH  052%=      5-min Rain = 0
KLD1 120920Z 17005KT M05/M14 A3023 RMK A01 T10481136  RH  051%=      5-min Rain = 0
KLD1 120925Z 17005KT M05/M14 A3024 RMK A01 T10451136  RH  050%=      5-min Rain = 0
KLD1 120930Z 19005KT M04/M14 A3024 RMK A01 T10441136  RH  049%=      5-min Rain = 0
KLD1 120935Z 18005KT M04/M14 A3024 RMK A01 T10421136  RH  049%=      5-min Rain = 0
KLD1 120940Z 18006KT M04/M14 A3024 RMK A01 T10401135  RH  048%=      5-min Rain = 0
KLD1 120945Z 18006KT M04/M14 A3024 RMK A01 T10381136  RH  047%=      5-min Rain = 0
KLD1 120950Z 17004KT M04/M14 A3024 RMK A01 T10361135  RH  047%=      5-min Rain = 0
KLD1 120955Z 17005KT M04/M14 A3024 RMK A01 T10351135  RH  046%=      5-min Rain = 0
KLD1 121000Z 15005KT M03/M14 A3023 RMK A01 T10341136  RH  046%=      5-min Rain = 0
KLD1 121005Z 14007KT M03/M14 A3023 RMK A01 T10341136  RH  046%=      5-min Rain = 0
KLD1 121010Z 14006KT M03/M14 A3022 RMK A01 T10341137  RH  046%=      5-min Rain = 0
KLD1 121015Z 17004KT M03/M14 A3023 RMK A01 T10331137  RH  045%=      5-min Rain = 0
KLD1 121020Z 16004KT M03/M14 A3023 RMK A01 T10321137  RH  045%=      5-min Rain = 0
KLD1 121025Z 16004KT M03/M14 A3023 RMK A01 T10321137  RH  045%=      5-min Rain = 0
KLD1 121030Z 18004KT M03/M14 A3024 RMK A01 T10311136  RH  045%=      5-min Rain = 0
KLD1 121035Z 18004KT M03/M14 A3024 RMK A01 T10291135  RH  045%=      5-min Rain = 0
KLD1 121040Z 17005KT M03/M13 A3024 RMK A01 T10271133  RH  045%=      5-min Rain = 0
KLD1 121045Z 16006KT M03/M13 A3024 RMK A01 T10261133  RH  044%=      5-min Rain = 0
KLD1 121050Z 15006KT M03/M13 A3023 RMK A01 T10271134  RH  044%=      5-min Rain = 0
KLD1 121055Z 15006KT M03/M14 A3023 RMK A01 T10271135  RH  044%=      5-min Rain = 0
KLD1 121100Z 15006KT M03/M14 A3023 RMK A01 T10271135  RH  044%=      5-min Rain = 0
KLD1 121105Z 15007KT M03/M14 A3022 RMK A01 T10271135  RH  044%=      5-min Rain = 0
KLD1 121110Z 16007KT M03/M14 A3023 RMK A01 T10271135  RH  044%=      5-min Rain = 0
KLD1 121115Z 17005KT M03/M14 A3023 RMK A01 T10271136  RH  044%=      5-min Rain = 0
KLD1 121120Z 17005KT M03/M14 A3023 RMK A01 T10281136  RH  044%=      5-min Rain = 0
KLD1 121125Z 18005KT M03/M14 A3024 RMK A01 T10291136  RH  044%=      5-min Rain = 0
KLD1 121130Z 18005KT M03/M14 A3024 RMK A01 T10301137  RH  044%=      5-min Rain = 0
KLD1 121135Z 17004KT M03/M14 A3024 RMK A01 T10321137  RH  045%=      5-min Rain = 0
KLD1 121140Z 17004KT M03/M14 A3024 RMK A01 T10341138  RH  045%=      5-min Rain = 0
KLD1 121145Z 16006KT M04/M14 A3024 RMK A01 T10371139  RH  046%=      5-min Rain = 0
KLD1 121150Z 16006KT M04/M14 A3023 RMK A01 T10401140  RH  046%=      5-min Rain = 0
KLD1 121155Z 15005KT M04/M14 A3023 RMK A01 T10401139  RH  047%=      5-min Rain = 0
KLD1 121200Z 15005KT M04/M14 A3023 RMK A01 T10401139  RH  047%=      5-min Rain = 0
KLD1 121205Z 15004KT M04/M14 A3023 RMK A01 T10411140  RH  047%=      5-min Rain = 0
KLD1 121210Z 14004KT M04/M14 A3023 RMK A01 T10441142  RH  047%=      5-min Rain = 0
KLD1 121215Z 14004KT M05/M14 A3023 RMK A01 T10451141  RH  048%=      5-min Rain = 0
KLD1 121220Z 14004KT M05/M14 A3024 RMK A01 T10451141  RH  048%=      5-min Rain = 0
KLD1 121225Z 15004KT M05/M14 A3024 RMK A01 T10461141  RH  048%=      5-min Rain = 0
KLD1 121230Z 15004KT M05/M14 A3025 RMK A01 T10481142  RH  049%=      5-min Rain = 0
KLD1 121235Z 15002KT M05/M14 A3025 RMK A01 T10491141  RH  049%=      5-min Rain = 0
KLD1 121240Z 14000KT M05/M14 A3025 RMK A01 T10491141  RH  049%=      5-min Rain = 0
KLD1 121245Z 15001KT M05/M14 A3025 RMK A01 T10511143  RH  049%=      5-min Rain = 0
KLD1 121250Z 14001KT M05/M14 A3025 RMK A01 T10541144  RH  050%=      5-min Rain = 0
KLD1 121255Z 15001KT M06/M14 A3025 RMK A01 T10551144  RH  050%=      5-min Rain = 0
KLD1 121300Z 15002KT M06/M14 A3025 RMK A01 T10561144  RH  050%=      5-min Rain = 0
KLD1 121305Z 15003KT M06/M14 A3025 RMK A01 T10551144  RH  050%=      5-min Rain = 0
KLD1 121310Z 14003KT M05/M15 A3025 RMK A01 T10541145  RH  050%=      5-min Rain = 0
KLD1 121315Z 12002KT M06/M15 A3026 RMK A01 T10561147  RH  050%=      5-min Rain = 0
KLD1 121320Z 12002KT M06/M15 A3026 RMK A01 T10581147  RH  050%=      5-min Rain = 0
KLD1 121325Z 13003KT M06/M15 A3026 RMK A01 T10601147  RH  051%=      5-min Rain = 0
KLD1 121330Z 14005KT M06/M15 A3026 RMK A01 T10611148  RH  051%=      5-min Rain = 0
KLD1 121335Z 14005KT M06/M15 A3026 RMK A01 T10611146  RH  052%=      5-min Rain = 0
KLD1 121340Z 14004KT M06/M14 A3026 RMK A01 T10591144  RH  052%=      5-min Rain = 0
KLD1 121345Z 13004KT M06/M15 A3026 RMK A01 T10581146  RH  050%=      5-min Rain = 0
KLD1 121350Z 11002KT M07/M16 A3026 RMK A01 T10651156  RH  049%=      5-min Rain = 0
KLD1 121355Z 08003KT M07/M15 A3026 RMK A01 T10721153  RH  054%=      5-min Rain = 0
KLD1 121400Z 08004KT M07/M15 A3026 RMK A01 T10701148  RH  055%=      5-min Rain = 0
KLD1 121405Z 09004KT M06/M15 A3026 RMK A01 T10641148  RH  052%=      5-min Rain = 0
KLD1 121410Z 10003KT M06/M15 A3026 RMK A01 T10591151  RH  049%=      5-min Rain = 0
KLD1 121415Z 11004KT M05/M15 A3027 RMK A01 T10531148  RH  048%=      5-min Rain = 0
KLD1 121420Z 12004KT M05/M15 A3027 RMK A01 T10501148  RH  047%=      5-min Rain = 0
KLD1 121425Z 11004KT M05/M15 A3027 RMK A01 T10471145  RH  047%=      5-min Rain = 0
KLD1 121430Z 10005KT M04/M14 A3027 RMK A01 T10421141  RH  047%=      5-min Rain = 0
KLD1 121435Z 11004KT M03/M14 A3027 RMK A01 T10331139  RH  044%=      5-min Rain = 0
KLD1 121440Z 13007KT M03/M14 A3028 RMK A01 T10281137  RH  044%=      5-min Rain = 0
KLD1 121445Z 13007KT M03/M14 A3028 RMK A01 T10261137  RH  043%=      5-min Rain = 0
KLD1 121450Z 14008KT M02/M14 A3028 RMK A01 T10241136  RH  043%=      5-min Rain = 0
KLD1 121455Z 13008G13KT M02/M14 A3028 RMK A01 T10181135  RH  041%=      5-min Rain = 0
KLD1 121500Z 13010KT M01/M14 A3028 RMK A01 T10121136  RH  039%=      5-min Rain = 0
KLD1 121505Z 13010KT M01/M14 A3028 RMK A01 T10081138  RH  037%=      5-min Rain = 0
KLD1 121510Z 14011KT M01/M14 A3028 RMK A01 T10051142  RH  035%=      5-min Rain = 0
KLD1 121515Z 14012KT M00/M15 A3028 RMK A01 T10041147  RH  034%=      5-min Rain = 0
KLD1 121520Z 13012KT M00/M15 A3029 RMK A01 T10041150  RH  033%=      5-min Rain = 0
KLD1 121525Z 13013KT M01/M15 A3029 RMK A01 T10051151  RH  033%=      5-min Rain = 0
KLD1 121530Z 13012KT M00/M15 A3029 RMK A01 T10031150  RH  032%=      5-min Rain = 0
KLD1 121535Z 13013KT M00/M15 A3029 RMK A01 T10011151  RH  032%=      5-min Rain = 0
KLD1 121540Z 13015KT M00/M15 A3029 RMK A01 T10011153  RH  031%=      5-min Rain = 0
KLD1 121545Z 13011KT 00/M15 A3029 RMK A01 T00031150  RH  031%=      5-min Rain = 0
KLD1 121550Z 12012KT 00/M15 A3029 RMK A01 T00041151  RH  031%=      5-min Rain = 0
KLD1 121555Z 14014KT 00/M15 A3029 RMK A01 T00031154  RH  030%=      5-min Rain = 0
KLD1 121600Z 13013KT 00/M15 A3029 RMK A01 T00011152  RH  031%=      5-min Rain = 0
KLD1 121605Z 13012G17KT 00/M15 A3029 RMK A01 T00031150  RH  031%=      5-min Rain = 0
KLD1 121610Z 13013KT 01/M15 A3029 RMK A01 T00061150  RH  031%=      5-min Rain = 0
KLD1 121615Z 13013KT 01/M15 A3029 RMK A01 T00091149  RH  030%=      5-min Rain = 0
KLD1 121620Z 13014KT 01/M15 A3029 RMK A01 T00091148  RH  030%=      5-min Rain = 0
KLD1 121625Z 13013G18KT 01/M15 A3028 RMK A01 T00101147  RH  030%=      5-min Rain = 0
KLD1 121630Z 12012KT 01/M15 A3028 RMK A01 T00141145  RH  030%=      5-min Rain = 0
KLD1 121635Z 12013KT 02/M15 A3029 RMK A01 T00161148  RH  029%=      5-min Rain = 0
KLD1 121640Z 12013G18KT 02/M15 A3028 RMK A01 T00191149  RH  028%=      5-min Rain = 0
KLD1 121645Z 11013KT 02/M15 A3028 RMK A01 T00201148  RH  028%=      5-min Rain = 0
KLD1 121650Z 12013KT 02/M15 A3028 RMK A01 T00201149  RH  028%=      5-min Rain = 0
KLD1 121655Z 12013KT 02/M15 A3028 RMK A01 T00211151  RH  027%=      5-min Rain = 0
KLD1 121700Z 11013KT 02/M15 A3028 RMK A01 T00231150  RH  027%=      5-min Rain = 0
KLD1 121705Z 11013KT 03/M15 A3028 RMK A01 T00281150  RH  026%=      5-min Rain = 0
KLD1 121710Z 12012G17KT 03/M15 A3028 RMK A01 T00271151  RH  026%=      5-min Rain = 0
KLD1 121715Z 13012G18KT 03/M15 A3028 RMK A01 T00301154  RH  025%=      5-min Rain = 0
KLD1 121720Z 11012KT 03/M15 A3028 RMK A01 T00311151  RH  025%=      5-min Rain = 0
KLD1 121725Z 12012G17KT 04/M15 A3028 RMK A01 T00351154  RH  024%=      5-min Rain = 0
KLD1 121730Z 13013KT 04/M16 A3028 RMK A01 T00371160  RH  023%=      5-min Rain = 0
KLD1 121735Z 11013G18KT 04/M16 A3028 RMK A01 T00391161  RH  022%=      5-min Rain = 0
KLD1 121740Z 14013G18KT 04/M16 A3028 RMK A01 T00391162  RH  022%=      5-min Rain = 0
KLD1 121745Z 13013KT 04/M17 A3027 RMK A01 T00431166  RH  021%=      5-min Rain = 0
KLD1 121750Z 11013KT 04/M17 A3027 RMK A01 T00421166  RH  021%=      5-min Rain = 0
KLD1 121755Z 13012G17KT 04/M17 A3027 RMK A01 T00441169  RH  020%=      5-min Rain = 0
KLD1 121800Z 13012KT 05/M17 A3027 RMK A01 T00471172  RH  019%=      5-min Rain = 0
KLD1 121805Z 13013G19KT 05/M18 A3026 RMK A01 T00501175  RH  018%=      5-min Rain = 0
KLD1 121810Z 13012G17KT 05/M18 A3026 RMK A01 T00501175  RH  018%=      5-min Rain = 0
KLD1 121815Z 13012G18KT 05/M17 A3026 RMK A01 T00531172  RH  018%=      5-min Rain = 0
KLD1 121820Z 14013G18KT 06/M17 A3026 RMK A01 T00551170  RH  018%=      5-min Rain = 0
KLD1 121825Z 12013G18KT 05/M17 A3025 RMK A01 T00531168  RH  019%=      5-min Rain = 0
KLD1 121830Z 13013G19KT 06/M17 A3025 RMK A01 T00551166  RH  019%=      5-min Rain = 0
KLD1 121835Z 13013G18KT 06/M17 A3024 RMK A01 T00601165  RH  018%=      5-min Rain = 0
KLD1 121840Z 12012G17KT 06/M17 A3024 RMK A01 T00611165  RH  018%=      5-min Rain = 0
KLD1 121845Z 13014G20KT 06/M16 A3024 RMK A01 T00641163  RH  018%=      5-min Rain = 0
KLD1 121850Z 14014KT 06/M16 A3023 RMK A01 T00631161  RH  019%=      5-min Rain = 0
KLD1 121855Z 14013G18KT 07/M16 A3023 RMK A01 T00651160  RH  019%=      5-min Rain = 0
KLD1 121900Z 13014KT 07/M16 A3023 RMK A01 T00651157  RH  019%=      5-min Rain = 0
KLD1 121905Z 12013G18KT 07/M16 A3022 RMK A01 T00651155  RH  019%=      5-min Rain = 0
KLD1 121910Z 14014G22KT 07/M15 A3022 RMK A01 T00671151  RH  020%=      5-min Rain = 0
KLD1 121915Z 14012G19KT 07/M15 A3022 RMK A01 T00701146  RH  020%=      5-min Rain = 0
KLD1 121920Z 11014KT 07/M15 A3021 RMK A01 T00701148  RH  020%=      5-min Rain = 0
KLD1 121925Z 14015G20KT 07/M14 A3021 RMK A01 T00721141  RH  021%=      5-min Rain = 0
KLD1 121930Z 13015G22KT 07/M14 A302 RMK A01 T00721136  RH  022%=      5-min Rain = 0
KLD1 121935Z 14015KT 07/M13 A302 RMK A01 T00721134  RH  022%=      5-min Rain = 0
KLD1 121940Z 14016KT 08/M13 A302 RMK A01 T00761126  RH  023%=      5-min Rain = 0
KLD1 121945Z 14014G19KT 08/M13 A302 RMK A01 T00781126  RH  022%=      5-min Rain = 0
KLD1 121950Z 15014G21KT 08/M12 A3019 RMK A01 T00771124  RH  023%=      5-min Rain = 0
KLD1 121955Z 15016G22KT 08/M12 A3019 RMK A01 T00781124  RH  023%=      5-min Rain = 0
KLD1 122000Z 15015G21KT 08/M12 A3019 RMK A01 T00781123  RH  023%=      5-min Rain = 0
KLD1 122005Z 14015G20KT 08/M12 A3018 RMK A01 T00781121  RH  023%=      5-min Rain = 0
KLD1 122010Z 14015G23KT 08/M12 A3018 RMK A01 T00801118  RH  024%=      5-min Rain = 0
KLD1 122015Z 13016G21KT 08/M12 A3018 RMK A01 T00791117  RH  024%=      5-min Rain = 0
KLD1 122020Z 15016G23KT 08/M12 A3018 RMK A01 T00791117  RH  024%=      5-min Rain = 0
KLD1 122025Z 15013G20KT 08/M12 A3018 RMK A01 T00821117  RH  023%=      5-min Rain = 0
KLD1 122030Z 14015G20KT 08/M12 A3017 RMK A01 T00821118  RH  023%=      5-min Rain = 0
KLD1 122035Z 14015G20KT 08/M12 A3017 RMK A01 T00811116  RH  024%=      5-min Rain = 0
KLD1 122040Z 14013G20KT 09/M11 A3017 RMK A01 T00871114  RH  023%=      5-min Rain = 0
KLD1 122045Z 14015G20KT 09/M12 A3016 RMK A01 T00871115  RH  023%=      5-min Rain = 0
KLD1 122050Z 14015G22KT 09/M11 A3016 RMK A01 T00871113  RH  023%=      5-min Rain = 0
KLD1 122055Z 14015G21KT 09/M11 A3016 RMK A01 T00881111  RH  024%=      5-min Rain = 0
KLD1 122100Z 14015G21KT 09/M11 A3016 RMK A01 T00891109  RH  024%=      5-min Rain = 0
KLD1 122105Z 13015G23KT 09/M11 A3016 RMK A01 T00881111  RH  024%=      5-min Rain = 0
KLD1 122110Z 13018KT 08/M11 A3016 RMK A01 T00841110  RH  024%=      5-min Rain = 0
KLD1 122115Z 14014G20KT 08/M11 A3016 RMK A01 T00841110  RH  024%=      5-min Rain = 0
KLD1 122120Z 14014G19KT 09/M11 A3015 RMK A01 T00851108  RH  024%=      5-min Rain = 0
KLD1 122125Z 13015G25KT 08/M11 A3015 RMK A01 T00841107  RH  025%=      5-min Rain = 0
KLD1 122130Z 14015G21KT 09/M11 A3015 RMK A01 T00881106  RH  025%=      5-min Rain = 0
KLD1 122135Z 14014G19KT 09/M11 A3015 RMK A01 T00911105  RH  024%=      5-min Rain = 0
KLD1 122140Z 14016KT 09/M10 A3015 RMK A01 T00911104  RH  024%=      5-min Rain = 0
KLD1 122145Z 15015G21KT 09/M10 A3015 RMK A01 T00921102  RH  025%=      5-min Rain = 0
KLD1 122150Z 14015G21KT 09/M10 A3015 RMK A01 T00931102  RH  024%=      5-min Rain = 0
KLD1 122155Z 13016G22KT 09/M10 A3015 RMK A01 T00911104  RH  024%=      5-min Rain = 0
KLD1 122200Z 14015G20KT 09/M10 A3015 RMK A01 T00891103  RH  025%=      5-min Rain = 0
KLD1 122205Z 13016KT 09/M10 A3015 RMK A01 T00871104  RH  025%=      5-min Rain = 0
KLD1 122210Z 14015KT 09/M10 A3015 RMK A01 T00901103  RH  025%=      5-min Rain = 0
KLD1 122215Z 14014G20KT 09/M10 A3015 RMK A01 T00911103  RH  024%=      5-min Rain = 0
KLD1 122220Z 14016KT 09/M10 A3015 RMK A01 T00931103  RH  024%=      5-min Rain = 0
KLD1 122225Z 13017G22KT 09/M10 A3015 RMK A01 T00901103  RH  025%=      5-min Rain = 0
KLD1 122230Z 14015G22KT 09/M10 A3015 RMK A01 T00901104  RH  025%=      5-min Rain = 0
KLD1 122235Z 14015KT 09/M10 A3015 RMK A01 T00931102  RH  024%=      5-min Rain = 0
KLD1 122240Z 14016KT 09/M10 A3015 RMK A01 T00901103  RH  025%=      5-min Rain = 0
KLD1 122245Z 14015G20KT 09/M10 A3015 RMK A01 T00851104  RH  025%=      5-min Rain = 0
KLD1 122250Z 13015G20KT 09/M10 A3015 RMK A01 T00861102  RH  026%=      5-min Rain = 0
KLD1 122255Z 13015G20KT 09/M10 A3015 RMK A01 T00911102  RH  025%=      5-min Rain = 0
KLD1 122300Z 13016G21KT 09/M10 A3015 RMK A01 T00901103  RH  025%=      5-min Rain = 0
KLD1 122305Z 13016G21KT 09/M10 A3015 RMK A01 T00881104  RH  025%=      5-min Rain = 0
KLD1 122310Z 13016KT 08/M10 A3015 RMK A01 T00841104  RH  025%=      5-min Rain = 0
KLD1 122315Z 14017G24KT 08/M10 A3015 RMK A01 T00811104  RH  026%=      5-min Rain = 0
KLD1 122320Z 14017KT 08/M10 A3015 RMK A01 T00791104  RH  026%=      5-min Rain = 0
KLD1 122325Z 14015KT 08/M10 A3015 RMK A01 T00771104  RH  027%=      5-min Rain = 0
KLD1 122330Z 15015KT 08/M10 A3015 RMK A01 T00811103  RH  026%=      5-min Rain = 0
KLD1 122335Z 14016KT 08/M10 A3015 RMK A01 T00831104  RH  026%=      5-min Rain = 0
KLD1 122340Z 14015G20KT 08/M11 A3015 RMK A01 T00811105  RH  026%=      5-min Rain = 0
KLD1 122345Z 14014G21KT 08/M10 A3015 RMK A01 T00801104  RH  026%=      5-min Rain = 0
KLD1 122350Z 14015G20KT 08/M11 A3015 RMK A01 T00781105  RH  026%=      5-min Rain = 0
KLD1 122355Z 14016G22KT 08/M11 A3015 RMK A01 T00761105  RH  027%=      5-min Rain = 0
KLD1 130000Z 13016KT 07/M10 A3015 RMK A01 T00741104  RH  027%=      5-min Rain = 0
KLD1 130005Z 14014G19KT 07/M10 A3016 RMK A01 T00721103  RH  028%=      5-min Rain = 0
KLD1 130010Z 14014G19KT 07/M10 A3016 RMK A01 T00701104  RH  028%=      5-min Rain = 0
KLD1 130015Z 14013G18KT 07/M11 A3016 RMK A01 T00681105  RH  028%=      5-min Rain = 0
KLD1 130020Z 14014G19KT 07/M10 A3016 RMK A01 T00671104  RH  029%=      5-min Rain = 0
KLD1 130025Z 14013KT 07/M11 A3016 RMK A01 T00651105  RH  029%=      5-min Rain = 0
KLD1 130030Z 14012G17KT 06/M11 A3016 RMK A01 T00631105  RH  029%=      5-min Rain = 0
KLD1 130035Z 14012KT 06/M11 A3016 RMK A01 T00621106  RH  029%=      5-min Rain = 0
KLD1 130040Z 13010G15KT 06/M11 A3016 RMK A01 T00591107  RH  029%=      5-min Rain = 0
KLD1 130045Z 14011KT 06/M11 A3016 RMK A01 T00581107  RH  030%=      5-min Rain = 0
KLD1 130050Z 14009KT 06/M11 A3017 RMK A01 T00571107  RH  030%=      5-min Rain = 0
KLD1 130055Z 14008KT 06/M11 A3017 RMK A01 T00551108  RH  030%=      5-min Rain = 0
KLD1 130100Z 13007KT 05/M11 A3017 RMK A01 T00521109  RH  031%=      5-min Rain = 0
KLD1 130105Z 13007KT 05/M11 A3017 RMK A01 T00491110  RH  031%=      5-min Rain = 0
KLD1 130110Z 13007KT 05/M11 A3017 RMK A01 T00461112  RH  031%=      5-min Rain = 0
KLD1 130115Z 12008KT 04/M11 A3018 RMK A01 T00431114  RH  031%=      5-min Rain = 0
KLD1 130120Z 12007KT 04/M12 A3018 RMK A01 T00421115  RH  031%=      5-min Rain = 0
KLD1 130125Z 12006KT 04/M12 A3018 RMK A01 T00391116  RH  032%=      5-min Rain = 0
KLD1 130130Z 12006KT 04/M12 A3018 RMK A01 T00371117  RH  032%=      5-min Rain = 0
KLD1 130135Z 12008KT 04/M12 A3018 RMK A01 T00361117  RH  032%=      5-min Rain = 0
KLD1 130140Z 12008KT 04/M12 A3018 RMK A01 T00361117  RH  032%=      5-min Rain = 0
KLD1 130145Z 12008KT 04/M12 A3019 RMK A01 T00351117  RH  032%=      5-min Rain = 0
KLD1 130150Z 12008KT 03/M12 A3019 RMK A01 T00341118  RH  032%=      5-min Rain = 0
KLD1 130155Z 12008KT 03/M12 A3019 RMK A01 T00331118  RH  032%=      5-min Rain = 0
KLD1 130200Z 12008KT 03/M12 A3019 RMK A01 T00321118  RH  033%=      5-min Rain = 0
KLD1 130205Z 12009KT 03/M12 A302 RMK A01 T00311119  RH  033%=      5-min Rain = 0
KLD1 130210Z 12009KT 03/M12 A302 RMK A01 T00301119  RH  033%=      5-min Rain = 0
KLD1 130215Z 11008KT 03/M12 A302 RMK A01 T00271121  RH  033%=      5-min Rain = 0
KLD1 130220Z 11007KT 02/M12 A302 RMK A01 T00221122  RH  034%=      5-min Rain = 0
KLD1 130225Z 11008KT 02/M12 A302 RMK A01 T00191122  RH  035%=      5-min Rain = 0
KLD1 130230Z 12009KT 02/M12 A302 RMK A01 T00211121  RH  035%=      5-min Rain = 0
KLD1 130235Z 12009KT 02/M12 A302 RMK A01 T00231120  RH  034%=      5-min Rain = 0
KLD1 130240Z 11010KT 02/M12 A3021 RMK A01 T00221121  RH  034%=      5-min Rain = 0
KLD1 130245Z 11010KT 02/M12 A3021 RMK A01 T00201121  RH  035%=      5-min Rain = 0
KLD1 130250Z 11009KT 02/M12 A3021 RMK A01 T00181121  RH  035%=      5-min Rain = 0
KLD1 130255Z 11009KT 02/M12 A3021 RMK A01 T00161121  RH  036%=      5-min Rain = 0
KLD1 130300Z 11009KT 02/M12 A3021 RMK A01 T00151121  RH  036%=      5-min Rain = 0
KLD1 130305Z 11010KT 01/M12 A3021 RMK A01 T00141121  RH  037%=      5-min Rain = 0
KLD1 130310Z 12011KT 02/M12 A3021 RMK A01 T00151119  RH  037%=      5-min Rain = 0
KLD1 130315Z 11011KT 02/M12 A3021 RMK A01 T00161118  RH  037%=      5-min Rain = 0
KLD1 130320Z 12011KT 02/M12 A3021 RMK A01 T00161118  RH  037%=      5-min Rain = 0
KLD1 130325Z 12011KT 02/M12 A3021 RMK A01 T00151117  RH  037%=      5-min Rain = 0
KLD1 130330Z 11012G17KT 01/M12 A3021 RMK A01 T00141117  RH  037%=      5-min Rain = 0
KLD1 130335Z 11012KT 01/M12 A3021 RMK A01 T00141117  RH  038%=      5-min Rain = 0
KLD1 130340Z 12012KT 01/M12 A3021 RMK A01 T00141116  RH  038%=      5-min Rain = 0
KLD1 130345Z 12012KT 01/M12 A3021 RMK A01 T00141115  RH  038%=      5-min Rain = 0
KLD1 130350Z 12011KT 01/M12 A3021 RMK A01 T00141115  RH  038%=      5-min Rain = 0
KLD1 130355Z 12011KT 01/M12 A3022 RMK A01 T00131115  RH  038%=      5-min Rain = 0
KLD1 130400Z 12011KT 01/M12 A3022 RMK A01 T00121115  RH  039%=      5-min Rain = 0
KLD1 130405Z 12011KT 01/M12 A3022 RMK A01 T00111115  RH  039%=      5-min Rain = 0
KLD1 130410Z 12011KT 01/M12 A3022 RMK A01 T00101115  RH  039%=      5-min Rain = 0
KLD1 130415Z 12010KT 01/M12 A3022 RMK A01 T00091115  RH  040%=      5-min Rain = 0
KLD1 130420Z 12011KT 01/M12 A3022 RMK A01 T00081115  RH  040%=      5-min Rain = 0
KLD1 130425Z 12011KT 01/M12 A3022 RMK A01 T00071115  RH  040%=      5-min Rain = 0
KLD1 130430Z 11011KT 01/M12 A3022 RMK A01 T00071115  RH  040%=      5-min Rain = 0
KLD1 130435Z 11010KT 01/M12 A3022 RMK A01 T00051116  RH  040%=      5-min Rain = 0
KLD1 130440Z 11010KT 00/M12 A3022 RMK A01 T00031116  RH  041%=      5-min Rain = 0
KLD1 130445Z 11011KT 00/M12 A3022 RMK A01 T00021116  RH  041%=      5-min Rain = 0
KLD1 130450Z 11011KT 00/M12 A3021 RMK A01 T00021115  RH  042%=      5-min Rain = 0
KLD1 130455Z 11010KT 00/12 A3021 RMK A01 T00000-116  RH  042%=      5-min Rain = 0
KLD1 130500Z 11011KT 00/12 A3021 RMK A01 T00-00-115  RH  042%=      5-min Rain = 0
KLD1 130505Z 11010KT M00/M12 A3021 RMK A01 T10021115  RH  043%=      5-min Rain = 0
KLD1 130510Z 11010KT M00/M12 A3021 RMK A01 T10031115  RH  043%=      5-min Rain = 0
KLD1 130515Z 11010KT M00/M12 A3021 RMK A01 T10041116  RH  043%=      5-min Rain = 0
KLD1 130520Z 11008KT M01/M12 A3022 RMK A01 T10051115  RH  044%=      5-min Rain = 0
KLD1 130525Z 10006KT M01/M12 A3022 RMK A01 T10071116  RH  044%=      5-min Rain = 0
KLD1 130530Z 10007KT M01/M12 A3022 RMK A01 T10101117  RH  045%=      5-min Rain = 0
KLD1 130535Z 10008KT M01/M12 A3022 RMK A01 T10121117  RH  045%=      5-min Rain = 0
KLD1 130540Z 09007KT M02/M12 A3022 RMK A01 T10151118  RH  046%=      5-min Rain = 0
KLD1 130545Z 10007KT M02/M12 A3022 RMK A01 T10171118  RH  047%=      5-min Rain = 0
KLD1 130550Z 10007KT M02/M12 A3022 RMK A01 T10181119  RH  047%=      5-min Rain = 0
KLD1 130555Z 10007KT M02/M12 A3022 RMK A01 T10211120  RH  047%=      5-min Rain = 0

Page generated in 0.0092 seconds.